createdAt,value
2019-01-30T00:04:29.473Z,10.49
2019-01-30T00:09:38.430Z,10.68
2019-01-30T00:14:47.440Z,9.87
2019-01-30T00:19:56.377Z,9.64
2019-01-30T00:25:05.345Z,9.77
2019-01-30T00:30:14.266Z,9.59
2019-01-30T00:35:23.282Z,9.39
2019-01-30T00:40:32.230Z,9.36
2019-01-30T00:45:41.283Z,8.78
2019-01-30T00:50:50.256Z,8.88
2019-01-30T00:55:59.283Z,8.49
2019-01-30T01:01:08.234Z,9.29
2019-01-30T01:06:17.201Z,8.27
2019-01-30T01:11:26.190Z,8.57
2019-01-30T01:16:35.139Z,8.67
2019-01-30T01:21:44.098Z,8.55
2019-01-30T01:26:53.016Z,8.64
2019-01-30T01:32:01.995Z,8.86
2019-01-30T01:37:10.966Z,8.85
2019-01-30T01:42:19.990Z,8.22
2019-01-30T01:47:28.944Z,8.01
2019-01-30T01:52:37.942Z,8.22
2019-01-30T01:57:46.888Z,8.33
2019-01-30T02:02:55.924Z,8.82
2019-01-30T02:08:04.869Z,8.64
2019-01-30T02:13:13.883Z,8.68
2019-01-30T02:18:22.854Z,9.04
2019-01-30T02:23:31.898Z,9.30
2019-01-30T02:28:40.858Z,10.03
2019-01-30T02:33:49.807Z,10.18
2019-01-30T02:38:58.758Z,10.15
2019-01-30T02:44:07.695Z,11.10
2019-01-30T02:49:16.703Z,11.06
2019-01-30T02:54:25.639Z,12.16
2019-01-30T02:59:34.643Z,12.07
2019-01-30T03:04:43.595Z,11.73
2019-01-30T03:09:52.606Z,11.60
2019-01-30T03:15:01.547Z,11.76
2019-01-30T03:20:10.547Z,12.11
2019-01-30T03:25:19.511Z,12.73
2019-01-30T03:30:28.533Z,12.86
2019-01-30T03:35:37.494Z,12.79
2019-01-30T03:40:46.462Z,12.45
2019-01-30T03:45:55.386Z,12.92
2019-01-30T03:51:04.366Z,13.10
2019-01-30T03:56:13.293Z,13.58
2019-01-30T04:01:26.732Z,14.21
2019-01-30T04:06:30.759Z,14.75
2019-01-30T04:11:39.687Z,14.37
2019-01-30T04:16:48.620Z,14.91
2019-01-30T04:21:57.583Z,15.34
2019-01-30T04:27:06.526Z,15.73
2019-01-30T04:32:15.539Z,15.24
2019-01-30T04:37:24.466Z,15.53
2019-01-30T04:42:33.462Z,16.22
2019-01-30T04:47:42.400Z,16.30
2019-01-30T04:52:51.439Z,16.46
2019-01-30T04:58:00.346Z,17.02
2019-01-30T05:03:09.335Z,16.37
2019-01-30T05:08:18.251Z,16.19
2019-01-30T05:13:27.242Z,17.01
2019-01-30T05:18:36.154Z,17.43
2019-01-30T05:23:45.102Z,17.17
2019-01-30T05:28:54.138Z,17.12
2019-01-30T05:34:03.058Z,16.72
2019-01-30T05:39:12.058Z,17.05
2019-01-30T05:44:20.982Z,17.61
2019-01-30T05:49:30.036Z,17.51
2019-01-30T05:54:38.946Z,16.67
2019-01-30T05:59:47.954Z,17.16
2019-01-30T06:04:56.886Z,17.14
2019-01-30T06:10:05.898Z,16.76
2019-01-30T06:15:14.978Z,17.10
2019-01-30T06:20:23.798Z,17.11
2019-01-30T06:25:32.815Z,17.25
2019-01-30T06:30:41.761Z,17.41
2019-01-30T06:35:50.777Z,17.85
2019-01-30T06:40:59.702Z,17.59
2019-01-30T06:46:08.614Z,17.29
2019-01-30T06:51:17.567Z,17.43
2019-01-30T06:56:26.586Z,16.71
2019-01-30T07:01:35.546Z,17.23
2019-01-30T07:06:44.598Z,17.06
2019-01-30T07:11:53.568Z,17.53
2019-01-30T07:17:02.492Z,16.72
2019-01-30T07:22:11.418Z,17.46
2019-01-30T07:27:20.410Z,16.96
2019-01-30T07:32:29.372Z,16.38
2019-01-30T07:37:38.397Z,16.32
2019-01-30T07:42:47.342Z,16.35
2019-01-30T07:47:56.398Z,15.56
2019-01-30T07:53:05.329Z,15.43
2019-01-30T07:58:14.331Z,15.53
2019-01-30T08:03:23.242Z,15.09
2019-01-30T08:08:32.272Z,14.54
2019-01-30T08:13:41.218Z,15.44
2019-01-30T08:18:50.291Z,14.03
2019-01-30T08:23:59.511Z,14.05
2019-01-30T08:29:08.419Z,13.63
2019-01-30T08:34:17.262Z,13.64
2019-01-30T08:39:26.166Z,13.99
2019-01-30T08:44:35.151Z,14.25
2019-01-30T08:49:44.066Z,14.26
2019-01-30T08:54:53.170Z,13.74
2019-01-30T09:00:02.126Z,14.97
2019-01-30T09:05:11.215Z,14.02
2019-01-30T09:10:20.159Z,14.08
2019-01-30T09:15:29.118Z,14.35
2019-01-30T09:20:38.075Z,13.95
2019-01-30T09:25:47.051Z,13.66
2019-01-30T09:30:56.079Z,14.15
2019-01-30T09:36:05.038Z,14.82
2019-01-30T09:41:14.049Z,14.81
2019-01-30T09:46:22.974Z,13.31
2019-01-30T09:51:31.960Z,13.73
2019-01-30T09:56:40.918Z,14.76
2019-01-30T10:01:49.971Z,14.52
2019-01-30T10:06:58.866Z,14.26
2019-01-30T10:12:07.930Z,14.50
2019-01-30T10:17:16.862Z,12.79
2019-01-30T10:22:25.983Z,13.77
2019-01-30T10:27:34.954Z,14.08
2019-01-30T10:32:43.981Z,13.11
2019-01-30T10:37:52.922Z,12.95
2019-01-30T10:43:01.871Z,13.03
2019-01-30T10:48:10.808Z,13.91
2019-01-30T10:53:19.838Z,13.24
2019-01-30T10:58:28.803Z,13.50
2019-01-30T11:03:37.770Z,13.59
2019-01-30T11:08:46.698Z,13.04
2019-01-30T11:13:55.678Z,14.73
2019-01-30T11:19:04.628Z,15.57
2019-01-30T11:24:13.602Z,15.51
2019-01-30T11:29:24.554Z,16.73
2019-01-30T11:34:23.598Z,17.03
2019-01-30T11:39:32.506Z,16.85
2019-01-30T11:44:41.486Z,17.68
2019-01-30T11:49:50.448Z,18.01
2019-01-30T11:54:59.375Z,19.93
2019-01-30T12:00:08.301Z,20.35
2019-01-30T12:05:17.354Z,21.58
2019-01-30T12:10:26.317Z,20.71
2019-01-30T12:15:35.366Z,21.43
2019-01-30T12:20:44.298Z,21.24
2019-01-30T12:25:53.302Z,21.42
2019-01-30T12:31:02.246Z,21.55
2019-01-30T12:36:11.269Z,23.76
2019-01-30T12:41:20.228Z,22.32
2019-01-30T12:46:29.231Z,23.00
2019-01-30T12:51:38.166Z,23.64
2019-01-30T12:56:47.111Z,23.22
2019-01-30T13:01:56.187Z,23.51
2019-01-30T13:07:05.086Z,24.09
2019-01-30T13:12:14.056Z,25.57
2019-01-30T13:17:22.958Z,25.65
2019-01-30T13:22:32.013Z,25.79
2019-01-30T13:27:40.940Z,25.15
2019-01-30T13:32:49.895Z,23.54
2019-01-30T13:37:58.833Z,26.54
2019-01-30T13:43:07.798Z,26.35
2019-01-30T13:48:16.760Z,27.24
2019-01-30T13:53:25.724Z,27.66
2019-01-30T13:58:34.685Z,28.92
2019-01-30T14:03:43.860Z,30.78
2019-01-30T14:08:52.779Z,31.49
2019-01-30T14:14:01.838Z,31.32
2019-01-30T14:19:10.740Z,31.45
2019-01-30T14:24:19.796Z,34.14
2019-01-30T14:29:28.690Z,32.97
2019-01-30T14:34:37.664Z,33.32
2019-01-30T14:39:46.701Z,33.48
2019-01-30T14:44:55.595Z,33.05
2019-01-30T14:50:04.690Z,32.16
2019-01-30T14:55:13.681Z,33.64
2019-01-30T15:00:22.662Z,32.66
2019-01-30T15:05:31.624Z,32.55
2019-01-30T15:10:40.643Z,33.41
2019-01-30T15:15:49.603Z,34.34
2019-01-30T15:20:58.686Z,32.20
2019-01-30T15:26:07.635Z,32.26
2019-01-30T15:31:16.695Z,30.22
2019-01-30T15:36:25.623Z,30.84
2019-01-30T15:41:34.642Z,26.81
2019-01-30T15:46:43.579Z,25.27
2019-01-30T15:51:52.538Z,27.07
2019-01-30T15:57:01.485Z,27.14
2019-01-30T16:02:10.802Z,27.53
2019-01-30T16:07:19.750Z,28.32
2019-01-30T16:12:28.733Z,28.34
2019-01-30T16:17:37.706Z,29.09
2019-01-30T16:22:46.673Z,29.34
2019-01-30T16:27:55.621Z,28.65
2019-01-30T16:33:04.634Z,29.31
2019-01-30T16:38:13.586Z,31.07
2019-01-30T16:43:22.620Z,30.26
2019-01-30T16:48:31.562Z,31.28
2019-01-30T16:53:40.553Z,30.51
2019-01-30T16:58:49.486Z,28.65
2019-01-30T17:03:58.507Z,28.55
2019-01-30T17:09:07.458Z,28.15
2019-01-30T17:14:16.429Z,28.79
2019-01-30T17:19:25.417Z,29.13
2019-01-30T17:24:34.390Z,28.70
2019-01-30T17:29:44.393Z,29.72
2019-01-30T17:34:53.365Z,30.02
2019-01-30T17:40:02.620Z,28.77
2019-01-30T17:45:10.778Z,29.06
2019-01-30T17:50:19.734Z,28.80
2019-01-30T17:55:28.791Z,28.83
2019-01-30T18:00:37.699Z,27.09
2019-01-30T18:05:46.661Z,27.46
2019-01-30T18:10:55.578Z,27.85
2019-01-30T18:16:05.190Z,28.73
2019-01-30T18:21:14.158Z,30.08
2019-01-30T18:26:23.172Z,28.28
2019-01-30T18:31:32.135Z,27.55
2019-01-30T18:36:41.576Z,25.30
2019-01-30T18:41:49.530Z,24.73
2019-01-30T18:46:58.582Z,24.62
2019-01-30T18:52:07.512Z,20.91
2019-01-30T18:57:16.498Z,21.06
2019-01-30T19:02:25.412Z,20.43
2019-01-30T19:07:34.458Z,19.70
2019-01-30T19:12:43.419Z,18.54
2019-01-30T19:17:52.418Z,16.78
2019-01-30T19:23:01.345Z,14.71
2019-01-30T19:28:10.311Z,12.15
2019-01-30T19:33:19.273Z,9.69
2019-01-30T19:38:28.366Z,8.72
2019-01-30T19:43:37.289Z,8.48
2019-01-30T19:48:46.260Z,8.85
2019-01-30T19:53:55.214Z,8.38
2019-01-30T19:59:04.182Z,9.23
2019-01-30T20:04:13.127Z,9.82
2019-01-30T20:09:22.175Z,11.27
2019-01-30T20:14:31.126Z,11.78
2019-01-30T20:19:40.203Z,12.66
2019-01-30T20:24:49.151Z,13.87
2019-01-30T20:29:58.226Z,15.88
2019-01-30T20:35:07.182Z,17.36
2019-01-30T20:40:16.141Z,18.55
2019-01-30T20:45:33.630Z,19.80
2019-01-30T20:50:33.662Z,21.31
2019-01-30T20:55:42.612Z,21.34
2019-01-30T21:00:51.591Z,21.21
2019-01-30T21:06:00.552Z,21.10
2019-01-30T21:11:09.694Z,22.04
2019-01-30T21:16:18.903Z,21.65
2019-01-30T21:21:27.934Z,20.72
2019-01-30T21:26:36.871Z,21.33
2019-01-30T21:31:45.851Z,21.87
2019-01-30T21:36:54.754Z,21.86
2019-01-30T21:42:03.774Z,20.60
2019-01-30T21:47:12.804Z,20.26
2019-01-30T21:52:21.658Z,20.57
2019-01-30T21:57:30.613Z,19.93
2019-01-30T22:02:39.574Z,20.72
2019-01-30T22:08:00.149Z,19.78
2019-01-30T22:12:57.007Z,20.18
2019-01-30T22:18:05.971Z,20.28
2019-01-30T22:23:14.959Z,20.99
2019-01-30T22:28:23.894Z,19.96
2019-01-30T22:33:32.922Z,19.84
2019-01-30T22:38:41.879Z,20.29
2019-01-30T22:43:50.898Z,20.10
2019-01-30T22:48:59.918Z,22.19
2019-01-30T22:54:08.839Z,21.66
2019-01-30T22:59:17.796Z,22.53
2019-01-30T23:04:26.837Z,23.92
2019-01-30T23:09:35.794Z,24.90
2019-01-30T23:14:44.775Z,25.88
2019-01-30T23:19:53.775Z,27.76
2019-01-30T23:25:02.713Z,27.57
2019-01-30T23:30:11.659Z,28.87
2019-01-30T23:35:20.618Z,29.86
2019-01-30T23:40:29.737Z,31.78
2019-01-30T23:45:38.583Z,31.75
2019-01-30T23:50:47.555Z,30.58
2019-01-30T23:55:56.513Z,31.33
